Search for airport 
image banner adimage banner adimage banner ad
image banner ad

CL25 - 7R Ranch

Located in Cuyama, United States

ICAO - CL25, IATA -

Data provided by Airmate  

General information

Coordinates: N34°56'8" W119°27'6"
Elevation is 3176 feet MSL.
Magnetic variation is 14° East
View others Airports in California

Operational data

Special qualification required
Current time UTC:
Current local time:
Weather at : KBFL - Meadows Field ( 66 km )
METAR: KBFL 231354Z 09005KT 6SM HZ FU BKN120 23/10 A2992 RMK AO2 SLP124 T02280100
TAF: KBFL 231132Z 2312/2412 VRB04KT 6SM HZ SKC
View NOTAMs / SUP AIP / TFR affecting this airport [VIEW]
Communications frequencies: [VIEW]

Runways:

RWY identifierQFULength (ft)Width (ft)SurfaceLDA (ft)
11235040GRASS
29235040GRASS

Airport contact information

Address: Cuyama United States

Satellite view of CL25